Time;durP1;ratioP1;P1;durP2;ratioP2;P2;SDS_P1;SDS_P2;PMS_P1;PMS_P2;Temp;Humidity;BMP_temperature;BMP_pressure;BME280_temperature;BME280_humidity;BME280_pressure;Samples;Min_cycle;Max_cycle;Signal;HPM_P1;HPM_P2
2022/05/05 00:06:12;;;;;;;76.22;6.53;;;;;;;6.70;82.25;93788.63;5046960;28;20097;-52
2022/05/05 00:08:38;;;;;;;49.83;4.97;;;;;;;6.67;82.21;93784.19;5047465;28;20042;-47
2022/05/05 00:16:31;;;;;;;67.00;6.65;;;;;;;6.38;85.11;93791.22;5047415;28;20044;-48
2022/05/05 00:18:56;;;;;;;52.25;7.45;;;;;;;6.53;86.11;93793.56;5046949;28;20029;-51
2022/05/05 00:21:22;;;;;;;51.40;5.40;;;;;;;6.61;85.48;93794.47;5047015;28;20081;-49
2022/05/05 00:23:48;;;;;;;92.97;7.97;;;;;;;6.47;85.04;93788.16;5046957;28;20040;-50
2022/05/05 00:26:13;;;;;;;100.65;8.77;;;;;;;6.40;85.75;93785.22;5047290;28;20028;-49
2022/05/05 00:28:38;;;;;;;75.00;8.25;;;;;;;6.61;84.46;93787.00;5046929;28;20017;-47
2022/05/05 00:31:04;;;;;;;50.45;6.28;;;;;;;6.65;83.70;93783.94;5049870;28;20017;-48
2022/05/05 00:33:30;;;;;;;50.25;6.50;;;;;;;6.56;83.77;93785.03;5050690;28;20025;-49
2022/05/05 00:35:56;;;;;;;104.88;9.68;;;;;;;6.57;83.65;93778.31;5050679;28;20495;-50
2022/05/05 00:38:21;;;;;;;39.50;5.95;;;;;;;6.57;83.22;93777.56;5050166;28;20036;-49
2022/05/05 00:40:46;;;;;;;63.05;7.18;;;;;;;6.57;83.13;93774.81;5050313;28;20056;-48
2022/05/05 00:43:12;;;;;;;25.98;4.80;;;;;;;6.41;83.24;93781.22;5050322;28;20077;-52
2022/05/05 00:45:37;;;;;;;28.90;4.93;;;;;;;6.26;82.61;93780.88;5050467;28;20017;-48
2022/05/05 00:48:08;;;;;;;59.33;6.47;;;;;;;6.25;81.60;93782.88;5050499;28;20048;-49
2022/05/05 00:50:35;;;;;;;52.53;4.50;;;;;;;6.37;81.41;93783.47;5050148;28;20108;-50
2022/05/05 00:53:02;;;;;;;48.60;4.18;;;;;;;6.21;81.56;93782.41;5050133;28;20042;-52
2022/05/05 00:55:28;;;;;;;49.97;4.70;;;;;;;6.09;82.22;93784.50;5050029;28;20565;-50
2022/05/05 00:57:54;;;;;;;39.67;4.45;;;;;;;6.15;82.14;93786.47;5050317;28;20424;-50
2022/05/05 01:00:19;;;;;;;38.35;4.05;;;;;;;6.20;81.59;93782.91;5050291;28;20059;-49
2022/05/05 01:02:46;;;;;;;51.60;4.30;;;;;;;6.23;81.50;93781.88;5050337;28;20064;-51
2022/05/05 01:05:11;;;;;;;66.95;6.55;;;;;;;6.02;82.31;93781.59;5048517;28;20489;-51
2022/05/05 01:07:38;;;;;;;76.80;5.72;;;;;;;6.10;84.41;93791.47;5049849;28;20132;-49
2022/05/05 01:10:04;;;;;;;83.65;5.72;;;;;;;6.03;85.39;93778.31;5049910;28;20076;-52
2022/05/05 01:12:31;;;;;;;65.75;5.03;;;;;;;6.24;85.70;93784.09;5049837;28;20025;-49
2022/05/05 01:14:59;;;;;;;76.20;6.22;;;;;;;6.32;82.85;93787.03;5049836;28;20025;-48
2022/05/05 01:17:28;;;;;;;55.33;5.03;;;;;;;6.31;82.43;93786.28;5049705;28;20112;-49
2022/05/05 01:19:53;;;;;;;48.80;4.85;;;;;;;6.10;82.71;93786.00;5049814;28;20017;-49
2022/05/05 01:22:19;;;;;;;40.08;3.90;;;;;;;6.07;82.80;93789.00;5049920;28;20032;-48
2022/05/05 01:30:13;;;;;;;58.88;4.43;;;;;;;6.06;82.92;93795.75;5049674;28;20036;-49
2022/05/05 01:32:38;;;;;;;42.17;4.00;;;;;;;5.98;82.85;93792.06;5049571;28;20017;-51
2022/05/05 01:35:04;;;;;;;51.20;6.30;;;;;;;5.91;82.76;93793.34;5049635;28;20024;-51
2022/05/05 01:37:30;;;;;;;36.92;4.28;;;;;;;6.00;82.38;93793.03;5049659;28;20468;-48
2022/05/05 01:39:56;;;;;;;39.40;5.88;;;;;;;5.97;82.55;93793.31;5049710;28;20464;-49
2022/05/05 01:42:21;;;;;;;45.47;5.75;;;;;;;5.92;82.71;93794.09;5048816;28;20056;-48
2022/05/05 01:44:47;;;;;;;30.90;6.28;;;;;;;5.86;84.56;93802.38;5049660;28;20431;-52
2022/05/05 01:47:12;;;;;;;26.10;4.32;;;;;;;5.92;83.92;93803.06;5049573;28;20021;-48
2022/05/05 01:49:38;;;;;;;34.50;7.57;;;;;;;5.88;83.28;93791.66;5049297;28;20017;-50
2022/05/05 01:52:08;;;;;;;17.65;5.30;;;;;;;5.68;84.01;93792.00;5049570;28;20406;-49
2022/05/05 01:54:34;;;;;;;27.90;4.22;;;;;;;5.47;84.24;93779.97;5049510;28;20422;-48
2022/05/05 01:56:59;;;;;;;18.80;3.70;;;;;;;5.58;84.33;93807.28;5049514;28;20102;-48
2022/05/05 01:59:25;;;;;;;22.75;4.07;;;;;;;5.68;83.39;93804.97;5049039;28;20428;-51
2022/05/05 02:01:50;;;;;;;20.35;3.83;;;;;;;5.49;84.39;93804.84;5049450;28;20028;-48
2022/05/05 02:04:16;;;;;;;22.02;2.78;;;;;;;5.53;85.31;93813.53;5049277;28;20017;-48
2022/05/05 02:06:41;;;;;;;24.13;2.95;;;;;;;5.53;84.75;93815.50;5048575;27;20044;-51
2022/05/05 02:09:07;;;;;;;8.93;2.25;;;;;;;5.53;84.55;93816.25;5049230;28;20020;-48
2022/05/05 02:11:32;;;;;;;30.52;2.83;;;;;;;5.52;83.53;93808.56;5049273;28;20040;-48
2022/05/05 02:13:57;;;;;;;29.75;3.42;;;;;;;5.51;84.46;93807.81;5049216;28;20516;-49
2022/05/05 02:16:23;;;;;;;19.38;2.35;;;;;;;5.61;83.94;93819.94;5048825;28;20510;-50
2022/05/05 02:18:48;;;;;;;58.47;4.55;;;;;;;5.52;83.99;93814.03;5048740;28;20025;-49
2022/05/05 02:21:14;;;;;;;79.63;6.43;;;;;;;5.51;83.94;93813.28;5049055;28;20025;-51
2022/05/05 02:23:39;;;;;;;16.70;2.70;;;;;;;5.61;83.93;93819.22;5049020;28;20025;-48
2022/05/05 02:26:05;;;;;;;56.30;3.92;;;;;;;5.61;83.33;93825.41;5049010;28;20013;-50
2022/05/05 02:28:31;;;;;;;82.15;12.80;;;;;;;5.67;83.12;93828.88;5048604;28;20025;-52
2022/05/05 02:30:57;;;;;;;36.70;7.70;;;;;;;5.66;84.14;93815.69;5048582;28;20029;-48
2022/05/05 02:33:22;;;;;;;38.85;6.88;;;;;;;5.70;83.14;93824.38;5048789;28;20028;-49
2022/05/05 02:38:42;;;;;;;44.80;3.88;;;;;;;5.66;83.22;93829.38;5048529;28;20093;-49
2022/05/05 02:38:47;;;;;;;33.53;3.53;;;;;;;5.67;83.92;93823.41;5048534;28;20033;-50
2022/05/05 02:41:13;;;;;;;68.10;5.53;;;;;;;5.58;84.81;93818.22;5048574;28;20021;-49
2022/05/05 02:43:38;;;;;;;41.67;3.63;;;;;;;5.57;84.68;93829.69;5048712;28;20100;-50
2022/05/05 02:46:03;;;;;;;40.78;3.45;;;;;;;5.65;84.39;93828.63;5048376;28;20029;-47
2022/05/05 02:48:29;;;;;;;50.20;4.00;;;;;;;5.61;84.34;93825.41;5048263;28;20069;-51
2022/05/05 02:50:54;;;;;;;84.80;4.72;;;;;;;5.64;84.86;93823.66;5048352;28;20152;-49
2022/05/05 02:56:06;;;;;;;45.88;3.15;;;;;;;5.58;84.12;93826.44;5048588;28;20052;-50
2022/05/05 02:58:31;;;;;;;40.50;2.42;;;;;;;5.73;83.79;93828.84;5048427;28;20113;-49
2022/05/05 03:00:56;;;;;;;42.63;3.58;;;;;;;5.74;83.94;93822.84;5048546;28;20053;-49
2022/05/05 03:03:22;;;;;;;21.75;3.03;;;;;;;5.58;83.83;93812.00;5048384;28;20682;-50
2022/05/05 03:05:47;;;;;;;51.10;12.02;;;;;;;5.69;83.80;93831.88;5047866;28;20048;-50
2022/05/05 03:08:13;;;;;;;24.02;6.88;;;;;;;5.69;84.19;93831.88;5048415;28;20024;-48
2022/05/05 03:10:39;;;;;;;31.77;10.43;;;;;;;5.75;84.08;93835.31;5047957;28;20052;-48
2022/05/05 03:13:04;;;;;;;26.88;7.88;;;;;;;5.74;83.63;93833.81;5048333;28;20027;-50
2022/05/05 03:15:30;;;;;;;34.78;6.53;;;;;;;5.79;83.15;93835.78;5047906;28;20043;-49
2022/05/05 03:17:55;;;;;;;21.40;4.07;;;;;;;5.73;82.90;93826.84;5048205;28;20074;-49
2022/05/05 03:20:20;;;;;;;8.63;3.95;;;;;;;5.69;82.96;93837.34;5048245;28;20020;-48
2022/05/05 03:22:46;;;;;;;50.65;22.40;;;;;;;5.71;83.53;93834.09;5048123;28;20482;-49
2022/05/05 03:25:11;;;;;;;24.60;9.27;;;;;;;5.68;83.55;93841.31;5047822;28;20090;-47
2022/05/05 03:27:37;;;;;;;21.08;3.90;;;;;;;5.65;83.73;93844.34;5047814;28;20017;-47
2022/05/05 03:30:04;;;;;;;10.85;3.47;;;;;;;5.56;84.00;93850.88;5047764;28;20052;-48
2022/05/05 03:32:32;;;;;;;18.00;3.42;;;;;;;5.53;84.19;93842.91;5048006;28;20025;-51
2022/05/05 03:34:58;;;;;;;14.32;4.50;;;;;;;5.53;84.64;93843.66;5047969;28;20027;-49
2022/05/05 03:37:27;;;;;;;23.77;5.10;;;;;;;5.51;84.71;93851.63;5047884;28;20025;-48
2022/05/05 03:39:52;;;;;;;18.58;3.28;;;;;;;5.43;84.94;93853.41;5046766;28;20040;-49
2022/05/05 03:42:17;;;;;;;17.25;3.50;;;;;;;5.57;84.54;93857.06;5047834;28;20021;-47
2022/05/05 03:44:43;;;;;;;29.73;4.05;;;;;;;5.55;84.33;93854.09;5047859;28;20486;-50
2022/05/05 03:47:08;;;;;;;30.48;6.97;;;;;;;5.53;85.22;93856.59;5047441;28;20501;-51
2022/05/05 03:49:34;;;;;;;30.17;6.20;;;;;;;5.68;85.16;93865.22;5047478;28;20032;-50
2022/05/05 03:51:59;;;;;;;38.67;3.85;;;;;;;5.70;85.10;93868.19;5047370;28;20025;-50
2022/05/05 03:54:26;;;;;;;25.27;4.70;;;;;;;5.79;85.83;93871.38;5047714;28;20100;-48
2022/05/05 03:56:51;;;;;;;6.63;3.33;;;;;;;5.95;83.51;93865.09;5047397;28;20017;-48
2022/05/05 03:59:17;;;;;;;16.77;5.55;;;;;;;6.04;82.42;93872.25;5047396;28;20044;-50
2022/05/05 04:01:42;;;;;;;38.25;5.88;;;;;;;6.06;81.79;93869.75;5047586;28;20516;-48
2022/05/05 04:04:08;;;;;;;15.60;5.68;;;;;;;6.17;81.87;93868.94;5047124;28;20414;-47
2022/05/05 04:06:33;;;;;;;17.92;5.40;;;;;;;6.18;82.56;93873.16;5046565;28;20044;-49
2022/05/05 04:08:59;;;;;;;22.02;7.50;;;;;;;6.22;82.54;93870.88;5047183;28;20017;-48
2022/05/05 04:11:25;;;;;;;19.85;7.57;;;;;;;6.15;83.05;93882.41;5047144;28;20033;-47
2022/05/05 04:13:50;;;;;;;21.85;3.88;;;;;;;6.21;82.83;93863.91;5047453;28;20040;-50
2022/05/05 04:16:16;;;;;;;34.47;5.90;;;;;;;6.24;81.19;93876.59;5047372;28;20025;-52
2022/05/05 04:18:42;;;;;;;30.75;4.97;;;;;;;6.35;81.67;93868.28;5046974;28;20414;-50
2022/05/05 04:21:07;;;;;;;17.30;4.78;;;;;;;6.30;83.47;93867.09;5047075;28;20025;-49
2022/05/05 04:23:33;;;;;;;18.60;4.28;;;;;;;6.56;84.36;93875.56;5047112;28;20096;-48
2022/05/05 04:25:59;;;;;;;25.42;5.35;;;;;;;6.69;83.40;93878.44;5047274;28;20044;-52
2022/05/05 04:28:25;;;;;;;10.05;4.13;;;;;;;6.80;82.49;93869.34;5046026;28;20090;-48
2022/05/05 04:30:51;;;;;;;23.88;4.43;;;;;;;6.87;81.25;93869.53;5046020;28;20032;-49
2022/05/05 04:33:16;;;;;;;65.97;8.05;;;;;;;7.03;78.48;93875.38;5047221;28;20462;-51
2022/05/05 04:35:41;;;;;;;143.40;9.80;;;;;;;7.05;78.41;93878.34;5046024;28;20096;-49
2022/05/05 04:38:08;;;;;;;22.50;4.47;;;;;;;6.87;79.37;93879.78;5045880;28;20494;-50
2022/05/05 04:40:33;;;;;;;27.65;6.03;;;;;;;6.72;80.33;93882.16;5046827;28;20114;-51
2022/05/05 04:42:59;;;;;;;21.55;7.00;;;;;;;6.70;81.96;93881.94;5047109;28;20092;-48
2022/05/05 04:45:24;;;;;;;48.22;6.22;;;;;;;6.90;82.52;93884.25;5047038;28;20029;-49
2022/05/05 04:47:50;;;;;;;20.15;5.65;;;;;;;7.05;81.43;93883.84;5046962;28;20486;-49
2022/05/05 04:50:16;;;;;;;24.23;6.22;;;;;;;6.91;80.00;93877.47;5046703;28;20077;-48
2022/05/05 04:52:42;;;;;;;18.40;5.30;;;;;;;7.13;81.60;93890.97;5046629;28;20021;-50
2022/05/05 04:55:08;;;;;;;19.67;5.43;;;;;;;7.48;80.95;93881.84;5046940;28;20021;-48
2022/05/05 04:57:35;;;;;;;68.63;6.97;;;;;;;7.66;79.68;93889.38;5046841;28;20508;-49
2022/05/05 05:00:00;;;;;;;65.90;5.97;;;;;;;7.84;77.05;93891.34;5046558;28;20112;-50
2022/05/05 05:02:26;;;;;;;52.20;5.53;;;;;;;7.80;77.17;93890.16;5046540;28;20058;-51
2022/05/05 05:04:52;;;;;;;65.63;5.10;;;;;;;7.95;76.82;93887.75;5046353;28;20017;-48
2022/05/05 05:07:17;;;;;;;36.47;3.92;;;;;;;8.18;76.78;93886.16;5046297;28;20045;-51
2022/05/05 05:09:42;;;;;;;9.82;3.30;;;;;;;8.45;77.53;93885.00;5046514;28;20029;-50
2022/05/05 05:12:08;;;;;;;15.05;7.00;;;;;;;8.74;77.55;93884.03;5046692;28;20024;-48
2022/05/05 05:14:34;;;;;;;3.45;3.00;;;;;;;9.06;76.76;93879.22;5046492;28;20029;-49
2022/05/05 05:17:00;;;;;;;7.55;2.30;;;;;;;9.00;74.53;93864.06;5047452;28;20032;-48
2022/05/05 05:19:27;;;;;;;6.00;2.50;;;;;;;9.47;75.22;93886.19;5049609;28;20025;-49
2022/05/05 05:21:53;;;;;;;10.95;3.97;;;;;;;9.62;74.22;93884.38;5050064;28;20021;-51
2022/05/05 05:24:18;;;;;;;14.30;3.30;;;;;;;9.81;73.10;93889.78;5049672;28;20032;-49
2022/05/05 05:26:45;;;;;;;12.48;3.58;;;;;;;10.07;72.30;93886.22;5049730;28;20036;-48
2022/05/05 05:29:11;;;;;;;11.23;3.47;;;;;;;10.22;71.58;93889.19;5049850;28;20039;-48
2022/05/05 05:31:36;;;;;;;18.17;2.50;;;;;;;10.39;70.37;93887.53;5049647;28;20024;-49
2022/05/05 05:34:02;;;;;;;2.75;2.00;;;;;;;10.49;71.24;93891.28;5049474;28;20025;-49
2022/05/05 05:36:27;;;;;;;41.55;5.30;;;;;;;10.63;69.53;93892.69;5049841;28;20048;-52
2022/05/05 05:38:52;;;;;;;17.65;5.53;;;;;;;10.53;69.39;93902.75;5049500;28;20029;-49
2022/05/05 05:41:18;;;;;;;12.60;4.10;;;;;;;10.68;68.85;93904.91;5049404;28;20081;-51
2022/05/05 05:43:43;;;;;;;9.75;3.80;;;;;;;11.06;67.68;93899.72;5049463;28;20076;-50
2022/05/05 05:46:09;;;;;;;4.82;3.65;;;;;;;11.87;66.28;93894.50;5049693;28;20028;-48
2022/05/05 05:48:35;;;;;;;5.93;3.65;;;;;;;12.51;65.02;93899.91;5049647;28;20517;-48
2022/05/05 05:51:00;;;;;;;6.70;5.65;;;;;;;12.62;64.16;93889.22;5049632;28;20022;-52
2022/05/05 05:53:26;;;;;;;14.50;9.52;;;;;;;12.76;63.13;93895.31;5049263;28;20036;-50
2022/05/05 05:55:51;;;;;;;15.95;10.35;;;;;;;12.62;63.35;93905.84;5049515;28;20017;-50
2022/05/05 05:58:17;;;;;;;14.23;9.30;;;;;;;12.85;62.80;93901.06;5049376;28;20044;-50
2022/05/05 06:00:42;;;;;;;8.32;6.53;;;;;;;13.17;63.91;93903.31;5047621;28;20417;-49
2022/05/05 06:05:52;;;;;;;9.00;5.07;;;;;;;13.37;61.25;93909.97;5048789;28;20081;-48
2022/05/05 06:08:17;;;;;;;4.93;4.43;;;;;;;13.53;62.78;93906.66;5049360;28;20032;-51
2022/05/05 06:10:43;;;;;;;3.67;3.35;;;;;;;13.71;61.89;93912.34;5048978;28;20025;-49
2022/05/05 06:13:09;;;;;;;4.72;3.45;;;;;;;14.07;63.10;93908.00;5049246;28;20021;-49
2022/05/05 06:15:34;;;;;;;3.28;2.97;;;;;;;14.62;59.46;93907.22;5049209;28;20482;-51
2022/05/05 06:18:00;;;;;;;4.95;3.60;;;;;;;15.19;60.26;93914.25;5048618;28;20025;-50
2022/05/05 06:20:25;;;;;;;4.25;3.30;;;;;;;15.86;56.62;93914.97;5048925;28;20467;-49
2022/05/05 06:22:51;;;;;;;3.88;3.47;;;;;;;16.30;57.40;93911.53;5049054;28;20046;-51
2022/05/05 06:25:19;;;;;;;5.20;4.03;;;;;;;16.72;56.41;93903.75;5049026;28;20028;-51
2022/05/05 06:27:45;;;;;;;4.18;3.13;;;;;;;17.47;55.47;93899.09;5048712;28;20029;-51
2022/05/05 06:30:13;;;;;;;3.08;2.78;;;;;;;18.27;51.44;93898.06;5048944;28;20566;-50
2022/05/05 06:32:41;;;;;;;2.38;2.17;;;;;;;19.04;49.73;93895.88;5048986;28;20028;-54
2022/05/05 06:35:07;;;;;;;3.03;1.80;;;;;;;19.98;48.68;93902.41;5048624;28;20040;-50
2022/05/05 06:37:33;;;;;;;2.40;2.20;;;;;;;21.20;44.51;93913.78;5048763;28;20036;-49
2022/05/05 06:40:00;;;;;;;4.65;2.33;;;;;;;21.87;42.02;93905.28;5048878;28;20017;-51
2022/05/05 06:42:27;;;;;;;3.50;1.95;;;;;;;21.66;42.77;93900.50;5048483;28;20520;-52
2022/05/05 06:44:52;;;;;;;4.45;2.88;;;;;;;21.16;45.72;93908.63;5048808;28;20459;-51
2022/05/05 06:47:18;;;;;;;3.22;2.85;;;;;;;20.63;44.52;93906.63;5048473;28;20051;-50
2022/05/05 06:49:43;;;;;;;2.63;2.42;;;;;;;20.06;44.84;93902.19;5048408;28;20053;-53
2022/05/05 06:52:08;;;;;;;4.57;3.30;;;;;;;20.06;46.67;93902.19;5048635;28;20028;-52
2022/05/05 06:54:34;;;;;;;3.65;2.90;;;;;;;19.68;46.46;93895.47;5048264;28;20029;-52
2022/05/05 06:57:00;;;;;;;4.13;2.88;;;;;;;19.40;47.10;93893.59;5048263;28;20071;-49
2022/05/05 06:59:25;;;;;;;3.38;3.05;;;;;;;19.50;49.74;93894.28;5048453;28;20077;-50
2022/05/05 07:01:53;;;;;;;3.33;2.60;;;;;;;19.68;49.30;93897.56;5048483;28;20016;-52
2022/05/05 07:07:08;;;;;;;8.15;3.15;;;;;;;19.99;48.15;93891.94;5048237;28;20544;-52
2022/05/05 08:15:33;;;;;;;4.95;3.95;;;;;;;33.02;25.90;93904.88;5064029;28;20603;-49
2022/05/05 08:17:58;;;;;;;2.53;1.85;;;;;;;32.86;24.49;93900.28;5064233;28;20100;-50
2022/05/05 08:20:24;;;;;;;2.55;1.80;;;;;;;33.16;24.49;93900.09;5063880;28;20016;-50
2022/05/05 08:22:49;;;;;;;1.65;1.48;;;;;;;32.44;22.32;93898.75;5044179;28;20021;-51
2022/05/05 08:30:43;;;;;;;2.47;1.20;;;;;;;31.87;25.32;93899.69;5043997;28;20571;-51
2022/05/05 08:33:09;;;;;;;2.65;1.40;;;;;;;32.62;21.47;93908.41;5044038;28;20017;-50
2022/05/05 08:35:34;;;;;;;3.50;1.27;;;;;;;33.20;22.77;93896.59;5043905;28;20044;-49
2022/05/05 08:38:00;;;;;;;1.17;1.10;;;;;;;32.69;23.05;93898.53;5043516;28;20529;-51
2022/05/05 08:40:27;;;;;;;3.35;1.52;;;;;;;33.34;21.59;93900.41;5043518;28;20100;-48
2022/05/05 08:42:53;;;;;;;2.58;1.00;;;;;;;33.50;22.62;93900.69;5043438;28;20029;-49
2022/05/05 08:45:19;;;;;;;3.30;1.00;;;;;;;34.06;22.43;93906.53;5043506;28;20036;-50
2022/05/05 08:47:46;;;;;;;1.15;0.90;;;;;;;33.99;19.50;93901.38;5043661;28;20025;-50
2022/05/05 08:50:12;;;;;;;1.05;0.95;;;;;;;33.41;21.66;93904.06;5043371;28;20017;-50
2022/05/05 08:52:50;;;;;;;1.67;0.90;;;;;;;34.26;21.26;93906.06;5043694;28;20029;-50
2022/05/05 08:55:20;;;;;;;1.23;1.00;;;;;;;34.21;20.55;93904.56;5043352;28;20057;-52
2022/05/05 08:57:46;;;;;;;1.13;1.05;;;;;;;34.10;20.15;93889.38;5043242;28;20581;-52
2022/05/05 09:00:13;;;;;;;1.05;0.90;;;;;;;34.21;19.96;93911.00;5043623;28;20026;-52
2022/05/05 09:02:39;;;;;;;1.63;1.20;;;;;;;34.13;20.69;93916.63;5043089;28;20017;-50
2022/05/05 09:05:05;;;;;;;1.13;1.00;;;;;;;34.96;17.53;93903.97;5041985;28;20044;-52
2022/05/05 09:07:50;;;;;;;1.13;1.02;;;;;;;34.71;18.60;93907.31;5043136;28;20029;-48
2022/05/05 09:10:20;;;;;;;1.90;0.95;;;;;;;34.04;19.75;93915.09;5043135;28;20109;-49
2022/05/05 09:12:59;;;;;;;1.92;1.10;;;;;;;34.48;19.21;93906.31;5042518;28;20049;-50
2022/05/05 09:15:36;;;;;;;1.80;1.33;;;;;;;34.44;19.29;93908.41;5035629;28;20544;-49
2022/05/05 09:18:29;;;;;;;10.88;1.48;;;;;;;33.76;18.00;93903.22;5029740;28;20090;-50
2022/05/05 09:20:56;;;;;;;7.30;2.03;;;;;;;32.18;19.48;93910.38;5029718;28;20025;-48
2022/05/05 09:26:31;;;;;;;7.32;6.40;;;;;;;32.62;18.17;93899.84;5029932;28;20113;-52
2022/05/05 09:28:58;;;;;;;7.68;3.30;;;;;;;32.53;20.78;93914.69;5029865;28;20029;-51
2022/05/05 09:31:23;;;;;;;2.22;1.30;;;;;;;32.36;21.01;93912.88;5028349;28;20062;-50
2022/05/05 09:33:49;;;;;;;2.15;1.50;;;;;;;31.33;21.11;93919.13;5029817;28;20112;-48
2022/05/05 09:36:17;;;;;;;1.30;1.20;;;;;;;30.21;23.10;93917.59;5029746;28;20026;-50
2022/05/05 09:38:57;;;;;;;2.08;1.63;;;;;;;28.64;25.70;93920.41;5028132;28;20185;-52
2022/05/05 09:41:24;;;;;;;2.95;1.95;;;;;;;27.49;26.83;93916.91;5029744;28;20089;-49
2022/05/05 09:43:50;;;;;;;2.25;1.40;;;;;;;26.95;26.89;93920.41;5029562;28;20113;-48
2022/05/05 09:46:21;;;;;;;1.40;1.30;;;;;;;25.97;27.45;93917.59;5028436;28;20037;-49
2022/05/05 09:48:47;;;;;;;2.58;1.88;;;;;;;25.07;30.15;93908.47;5029532;28;20033;-49
2022/05/05 09:51:16;;;;;;;2.00;1.80;;;;;;;24.74;33.10;93885.66;5029372;28;20545;-48
2022/05/05 09:59:20;;;;;;;2.63;2.17;;;;;;;29.09;25.31;93900.59;5029214;28;19970;-48
2022/05/05 10:01:50;;;;;;;2.25;1.92;;;;;;;29.44;24.47;93897.50;5029305;28;20029;-49
2022/05/05 10:04:17;;;;;;;5.38;1.90;;;;;;;29.43;25.38;93886.78;5028955;28;20044;-51
2022/05/05 10:06:43;;;;;;;3.47;1.70;;;;;;;28.47;23.71;93897.13;5026885;28;20029;-50
2022/05/05 10:09:14;;;;;;;12.35;2.33;;;;;;;27.91;26.15;93911.38;5039049;28;20033;-51
2022/05/05 10:11:41;;;;;;;3.05;1.63;;;;;;;28.46;26.17;93898.50;5049117;28;20470;-48
2022/05/05 10:14:11;;;;;;;2.53;1.70;;;;;;;28.97;27.01;93903.06;5028847;28;20639;-51
2022/05/05 10:16:38;;;;;;;2.15;1.50;;;;;;;29.66;25.19;93905.97;5028816;28;20033;-48
2022/05/05 10:19:04;;;;;;;1.95;1.40;;;;;;;29.96;25.67;93904.06;5029126;28;20177;-48
2022/05/05 10:21:58;;;;;;;4.75;1.60;;;;;;;30.43;23.14;93898.28;5028796;28;20036;-51
2022/05/05 10:24:31;;;;;;;4.03;1.85;;;;;;;30.97;24.22;93901.84;5043637;28;20041;-50
2022/05/05 10:27:01;;;;;;;2.95;1.33;;;;;;;31.34;24.31;93900.59;5027597;28;20030;-49
2022/05/05 10:29:40;;;;;;;1.50;1.40;;;;;;;31.49;23.17;93896.69;5028670;28;20482;-50
2022/05/05 10:32:17;;;;;;;2.08;1.65;;;;;;;31.26;22.65;93895.44;5028871;28;20036;-49
2022/05/05 10:34:52;;;;;;;2.20;1.63;;;;;;;31.21;22.35;93896.00;5028901;28;20033;-50
2022/05/05 10:37:20;;;;;;;2.95;1.70;;;;;;;31.02;20.93;93900.56;5028779;28;20030;-50
2022/05/05 10:40:08;;;;;;;13.95;2.88;;;;;;;31.49;22.24;93893.13;5028498;28;20061;-48
2022/05/05 10:42:39;;;;;;;1.60;1.50;;;;;;;31.81;23.91;93894.59;5028714;28;20120;-49
2022/05/05 10:45:23;;;;;;;1.58;1.27;;;;;;;31.60;23.10;93895.53;5028618;28;20418;-50
2022/05/05 10:47:58;;;;;;;1.60;1.50;;;;;;;31.69;21.73;93891.44;5028631;28;20026;-49
2022/05/05 10:50:56;;;;;;;3.50;1.60;;;;;;;32.06;22.35;93892.97;5028657;28;20025;-49
2022/05/05 10:53:32;;;;;;;1.40;1.10;;;;;;;31.52;21.90;93900.31;5028371;28;20026;-48
2022/05/05 10:56:00;;;;;;;2.35;1.98;;;;;;;30.77;21.00;93895.63;5028205;28;20033;-47
2022/05/05 10:59:06;;;;;;;4.40;3.17;;;;;;;31.13;22.43;93896.56;5028571;28;20413;-50
2022/05/05 11:01:44;;;;;;;5.20;4.15;;;;;;;31.42;22.54;93898.69;5028464;28;20074;-49
2022/05/05 11:04:15;;;;;;;1.65;1.52;;;;;;;31.06;18.97;93894.22;5028027;28;20061;-48
2022/05/05 11:06:45;;;;;;;2.92;1.73;;;;;;;30.95;22.43;93889.69;5028364;28;20033;-49
2022/05/05 11:09:31;;;;;;;5.22;1.75;;;;;;;30.35;22.17;93908.72;5028344;28;20090;-52
2022/05/05 11:12:16;;;;;;;2.78;2.40;;;;;;;29.81;24.29;93894.38;5027917;28;20055;-47
2022/05/05 11:23:30;;;;;;;15.63;8.32;;;;;;;28.13;28.46;93890.22;5027829;28;20076;-50
2022/05/05 11:25:57;;;;;;;14.35;7.68;;;;;;;28.15;27.01;93886.75;5028076;28;20090;-48
2022/05/05 11:28:22;;;;;;;3.10;2.03;;;;;;;27.63;28.32;93891.94;5026909;28;20399;-49
2022/05/05 11:30:48;;;;;;;2.95;1.45;;;;;;;27.21;25.23;93898.03;5027957;28;20093;-48
2022/05/05 11:33:13;;;;;;;5.18;4.25;;;;;;;26.79;26.79;93902.75;5027631;28;20665;-50
2022/05/05 11:35:39;;;;;;;2.53;1.35;;;;;;;26.73;26.23;93900.38;5009899;28;20033;-52
2022/05/05 11:38:09;;;;;;;2.80;2.25;;;;;;;26.55;29.84;93910.91;5027286;28;20058;-49
2022/05/05 11:40:35;;;;;;;1.52;1.40;;;;;;;25.69;27.42;93888.03;5027613;28;20086;-48
2022/05/05 11:45:45;;;;;;;2.97;1.65;;;;;;;24.16;26.83;93894.78;5026878;28;20072;-49
2022/05/05 11:48:17;;;;;;;1.67;1.58;;;;;;;23.77;31.52;93896.97;5027480;28;20025;-49
2022/05/05 11:50:46;;;;;;;2.00;1.63;;;;;;;23.45;28.99;93895.25;5027717;28;20036;-49
2022/05/05 11:53:17;;;;;;;6.00;4.22;;;;;;;23.13;32.01;93897.75;5027755;28;20032;-49
2022/05/05 11:55:46;;;;;;;2.40;2.20;;;;;;;22.96;32.67;93903.13;5027348;28;20128;-48
2022/05/05 12:01:36;;;;;;;5.97;2.40;;;;;;;22.65;32.11;93897.16;5027787;28;20021;-48
2022/05/05 12:04:00;;;;;;;3.30;2.80;;;;;;;22.66;32.53;93893.72;5047360;28;20565;-49
2022/05/05 12:06:26;;;;;;;1.90;1.80;;;;;;;22.98;34.27;93883.50;5047429;28;20108;-47
2022/05/05 12:08:51;;;;;;;3.80;1.65;;;;;;;23.20;30.89;93879.84;5047082;28;20028;-48
2022/05/05 12:11:17;;;;;;;1.80;1.40;;;;;;;23.06;28.79;93881.91;5046174;28;20085;-51
2022/05/05 12:13:43;;;;;;;1.60;1.50;;;;;;;22.99;30.90;93888.53;5029868;28;20099;-49
2022/05/05 12:16:10;;;;;;;1.90;1.45;;;;;;;23.10;30.60;93884.94;5027185;28;20461;-47
2022/05/05 12:18:51;;;;;;;3.92;1.80;;;;;;;23.22;30.90;93885.56;5027379;28;20030;-48
2022/05/05 12:21:23;;;;;;;1.67;1.50;;;;;;;23.48;30.74;93883.47;5027366;28;20029;-48
2022/05/05 12:23:59;;;;;;;1.95;1.30;;;;;;;23.70;31.17;93881.81;5026835;28;20030;-51
2022/05/05 12:26:33;;;;;;;3.80;1.35;;;;;;;23.63;28.37;93882.84;5027330;28;20022;-48
2022/05/05 12:28:59;;;;;;;3.55;1.52;;;;;;;23.49;30.28;93878.56;5025824;28;20029;-48
2022/05/05 12:31:25;;;;;;;2.28;1.92;;;;;;;23.61;30.71;93870.72;5027255;28;20413;-50
2022/05/05 12:33:51;;;;;;;1.52;1.42;;;;;;;23.55;28.70;93881.69;5027275;28;20444;-48
2022/05/05 12:36:17;;;;;;;7.13;4.53;;;;;;;23.39;33.89;93864.66;5026917;28;20057;-49
2022/05/05 12:38:42;;;;;;;6.95;4.72;;;;;;;23.47;34.11;93855.91;5027211;28;20565;-48
2022/05/05 12:41:08;;;;;;;6.20;3.70;;;;;;;23.72;34.12;93881.19;5026785;28;20064;-48
2022/05/05 12:43:34;;;;;;;8.60;3.90;;;;;;;23.61;32.19;93853.81;5027021;28;20093;-48
2022/05/05 12:46:03;;;;;;;3.80;3.00;;;;;;;23.93;34.00;93870.31;5027165;28;20026;-47
2022/05/05 12:48:30;;;;;;;2.22;2.05;;;;;;;23.85;29.97;93867.09;5026678;28;20033;-48
2022/05/05 12:50:56;;;;;;;1.75;1.15;;;;;;;23.56;29.76;93863.44;5028889;28;20075;-51
2022/05/05 13:01:42;;;;;;;32.72;18.63;;;;;;;23.14;33.97;93864.69;5050162;28;20500;-47
2022/05/05 13:04:12;;;;;;;8.75;6.15;;;;;;;23.37;35.30;93864.53;5049770;28;20036;-47
2022/05/05 13:06:39;;;;;;;6.68;4.43;;;;;;;23.60;31.78;93852.38;5049784;28;20709;-47
2022/05/05 13:09:09;;;;;;;6.03;4.93;;;;;;;23.56;33.22;93852.16;5050086;28;20078;-48
2022/05/05 13:11:44;;;;;;;2.25;1.80;;;;;;;23.21;30.68;93867.22;5050047;28;20591;-47
2022/05/05 13:14:10;;;;;;;5.63;3.10;;;;;;;23.17;32.93;93863.47;5029814;28;20052;-47
2022/05/05 13:16:36;;;;;;;3.65;2.60;;;;;;;23.27;32.12;93864.72;5029846;28;20025;-49
2022/05/05 13:19:02;;;;;;;1.88;1.77;;;;;;;22.97;31.34;93867.97;5045182;28;20029;-48
2022/05/05 13:21:29;;;;;;;5.30;2.00;;;;;;;22.96;33.55;93867.25;5029735;28;20030;-47
2022/05/05 13:23:55;;;;;;;1.85;1.63;;;;;;;23.01;32.48;93866.13;5029648;28;20554;-47
2022/05/05 13:26:20;;;;;;;1.90;1.80;;;;;;;22.96;30.53;93863.69;5029887;28;20064;-49
2022/05/05 13:28:46;;;;;;;2.90;1.77;;;;;;;22.79;30.82;93867.72;5029905;28;20098;-49
2022/05/05 13:31:12;;;;;;;5.75;2.40;;;;;;;22.57;33.94;93866.44;5029817;28;20025;-48
2022/05/05 13:33:37;;;;;;;1.40;1.30;;;;;;;22.35;32.51;93865.91;5029512;28;20104;-49
2022/05/05 13:36:03;;;;;;;2.15;1.80;;;;;;;22.15;33.44;93861.97;5029508;28;20037;-48
2022/05/05 13:38:29;;;;;;;3.53;2.70;;;;;;;22.17;34.27;93856.44;5028823;28;20058;-48
2022/05/05 13:40:56;;;;;;;3.90;2.60;;;;;;;22.12;35.02;93856.81;5029001;28;20025;-50
2022/05/05 13:43:21;;;;;;;4.40;2.72;;;;;;;22.19;34.73;93867.81;5029353;28;20036;-51